• Join FlightAware (Why Join?)
  • Login
  • US Flag 
11:23PM EDT


 

Airport Tracker/Info


-or-


 

Live Flight TrackerFlight Track Log ✈ SWA2728 ✈ 5 de Jul de 2013 ✈ KSAN - KPHX

Flight Track Log - Related Links

Times and Time Zones

All times are in EDT time to prevent confusion due to time zone crossing. See the SWA2728 flight status page for this flight to view local times or setup timezone preferences in your user account.

Time Position Orientation Groundspeed Altitude Reporting Facility
EDT Latitude Longitude Course Direction KTS MPH feet Rate Location/Type
10:47PM 32.7586 -117.2950 285° West 217 250 4,600  Level Los Angeles Center
10:49PM 32.7569 -117.3786 269° West 262 302 8,300 3,360 Climbing Los Angeles Center
10:50PM 32.6831 -117.3583 167° South 297 342 11,600 3,300 Climbing Los Angeles Center
10:51PM 32.6619 -117.2511 103° East 330 380 15,100 3,540 Climbing Los Angeles Center
10:52PM 32.6369 -117.1172 102° East 345 397 18,900 3,060 Climbing Los Angeles Center
10:53PM 32.6133 -116.9992 103° East 367 422 21,400 1,980 Climbing Los Angeles Center
10:54PM 32.6208 -116.8694 86° East 391 450 23,000 1,200 Climbing Los Angeles Center
10:55PM 32.6364 -116.7044 84° East 422 486 24,200 1,680 Climbing Los Angeles Center
10:56PM 32.6506 -116.5722 83° East 412 474 26,900 2,280 Climbing Los Angeles Center
10:57PM 32.6622 -116.4375 84° East 416 479 28,900 1,980 Climbing Los Angeles Center
10:58PM 32.6778 -116.2725 84° East 428 493 31,000 1,020 Climbing Los Angeles Center
10:59PM 32.6914 -116.1331 83° East 432 497 31,000  Level Los Angeles Center
11:00PM 32.7050 -115.9925 83° East 432 497 31,000  Level Los Angeles Center
11:01PM 32.7175 -115.8525 84° East 431 496 31,000  Level Los Angeles Center
11:02PM 32.7306 -115.7117 84° East 431 496 31,000  Level Los Angeles Center
11:03PM 32.7453 -115.5406 84° East 434 499 31,000  Level Los Angeles Center
11:04PM 32.7531 -115.3981 86° East 435 501 31,000  Level Los Angeles Center
11:05PM 32.7558 -115.2525 89° East 442 509 31,000  Level Los Angeles Center
11:06PM 32.7614 -115.1061 87° East 444 511 31,000  Level Los Angeles Center
11:07PM 32.7633 -114.9600 89° East 443 510 31,000  Level Los Angeles Center
11:08PM 32.7658 -114.8122 89° East 448 516 31,000  Level Los Angeles Center
11:09PM 32.7689 -114.6639 89° East 450 518 31,000  Level Los Angeles Center
11:10PM 32.7714 -114.5150 89° East 451 519 31,000 -240 Level Los Angeles Center
11:11PM 32.7742 -114.3383 89° East 446 513 30,600 -1,380 Descending Los Angeles Center
11:12PM 32.7756 -114.2064 89° East 405 466 28,200 -2,700 Descending Los Angeles Center
11:13PM 32.7767 -114.0697 89° East 414 476 25,100 -1,620 Descending Los Angeles Center
11:14PM 32.7797 -113.9356 88° East 407 468 25,000 -60 Descending Los Angeles Center
11:15PM 32.8017 -113.8022 79° East 413 475 25,000  Level Los Angeles Center
11:16PM 32.8364 -113.6689 73° East 438 504 25,000  Level Los Angeles Center
11:17PM 32.8733 -113.6119 52° Northeast 416 479 25,000 -120 Level Albuquerque Center
11:18PM 32.9517 -113.5069 48° Northeast 419 482 24,900 -1,140 Descending Albuquerque Center
11:19PM 33.0275 -113.4042 49° Northeast 414 476 22,700 -2,160 Descending Albuquerque Center
11:20PM 33.1156 -113.2847 49° Northeast 402 463 20,600 -2,280 Descending Albuquerque Center
11:21PM 33.1883 -113.1858 49° Northeast 399 459 18,200 -2,400 Descending Albuquerque Center
11:22PM 33.2589 -113.0897 49° Northeast 393 452 15,800 -1,980 Descending Albuquerque Center
11:23PM 33.2769 -112.9811 79° East 362 417 14,200 -1,860 Descending Albuquerque Center
11:24PM 33.2792 -112.8678 89° East 349 402 12,100 -1,740 Descending Albuquerque Center
11:25PM 33.3036 -112.7581 75° East 350 403 10,700 -1,260 Descending Albuquerque Center
11:26PM 33.3408 -112.6569 66° East 336 387 9,600 -1,260 Descending Albuquerque Center
11:27PM 33.3756 -112.5706 64° Northeast 303 349 8,200 -1,500 Descending Albuquerque Center
11:28PM 33.4028 -112.4792 70° East 293 337 6,600 -1,680 Descending Albuquerque Center
11:29PM 33.4086 -112.3850 86° East 286 329 4,900 -1,380 Descending Albuquerque Center
11:30PM 33.4158 -112.2939 85° East 279 321 3,900 -960 Descending Albuquerque Center
11:31PM 33.4275 -112.1969 82° East 247 284 3,000 -600 Descending Albuquerque Center
11:32PM 33.4289 -112.1256 89° East 217 250 2,800 -540 Descending Albuquerque Center
11:33PM 33.4333 -112.1000 78° East 189 217 2,200 -900 Descending Phoenix TRACON
11:34PM 33.4333 -112.0500 90° East 144 166 1,500 -720 Descending Phoenix TRACON
11:36PM 33.4343 -112.0116 84° East  Level Estimated